createdAt,value
2022-08-29T00:00:26.702Z,0.00
2022-08-29T00:01:26.682Z,0.00
2022-08-29T00:02:26.772Z,0.00
2022-08-29T00:03:26.649Z,0.00
2022-08-29T00:04:26.637Z,0.00
2022-08-29T00:05:26.612Z,0.00
2022-08-29T00:06:26.601Z,0.00
2022-08-29T00:07:26.579Z,0.00
2022-08-29T00:08:26.571Z,0.00
2022-08-29T00:09:26.551Z,0.00
2022-08-29T00:10:26.539Z,0.00
2022-08-29T00:11:26.516Z,0.00
2022-08-29T00:12:26.505Z,0.00
2022-08-29T00:13:26.482Z,0.00
2022-08-29T00:14:26.472Z,0.00
2022-08-29T00:15:26.454Z,0.00
2022-08-29T00:16:26.499Z,0.00
2022-08-29T00:17:26.417Z,0.00
2022-08-29T00:18:26.408Z,0.00
2022-08-29T00:19:26.382Z,0.00
2022-08-29T00:20:30.261Z,0.00
2022-08-29T00:21:26.353Z,0.00
2022-08-29T00:22:26.338Z,0.00
2022-08-29T00:23:26.321Z,0.00
2022-08-29T00:24:26.309Z,0.00
2022-08-29T00:25:26.286Z,0.00
2022-08-29T00:26:26.272Z,0.00
2022-08-29T00:27:26.256Z,0.00
2022-08-29T00:28:26.240Z,0.00
2022-08-29T00:29:26.226Z,0.00
2022-08-29T00:30:26.212Z,0.00
2022-08-29T00:31:26.240Z,0.00
2022-08-29T00:32:26.171Z,0.00
2022-08-29T00:33:26.154Z,0.00
2022-08-29T00:34:26.142Z,0.00
2022-08-29T00:35:26.124Z,0.00
2022-08-29T00:36:26.105Z,0.00
2022-08-29T00:37:26.087Z,0.00
2022-08-29T00:38:27.970Z,0.00
2022-08-29T00:39:26.057Z,0.00
2022-08-29T00:40:26.185Z,0.00
2022-08-29T00:41:26.024Z,0.00
2022-08-29T00:42:26.012Z,0.00
2022-08-29T00:43:25.993Z,0.00
2022-08-29T00:44:25.976Z,0.00
2022-08-29T00:45:26.074Z,0.00
2022-08-29T00:46:25.941Z,0.00
2022-08-29T00:47:25.925Z,0.00
2022-08-29T00:48:25.911Z,0.00
2022-08-29T00:49:25.894Z,0.00
2022-08-29T00:50:25.877Z,0.00
2022-08-29T00:51:25.857Z,0.00
2022-08-29T00:52:25.842Z,0.00
2022-08-29T00:53:25.826Z,0.00
2022-08-29T00:54:25.811Z,0.00
2022-08-29T00:55:25.796Z,0.00
2022-08-29T00:56:25.787Z,0.00
2022-08-29T00:57:25.760Z,0.00
2022-08-29T00:58:25.743Z,0.00
2022-08-29T00:59:26.051Z,0.00
2022-08-29T01:00:25.714Z,0.00
2022-08-29T01:01:25.731Z,0.00
2022-08-29T01:02:25.735Z,0.00
2022-08-29T01:03:25.661Z,0.00
2022-08-29T01:04:25.643Z,0.00
2022-08-29T01:05:25.631Z,0.00
2022-08-29T01:06:25.614Z,0.00
2022-08-29T01:07:25.595Z,0.00
2022-08-29T01:08:25.575Z,0.00
2022-08-29T01:09:25.559Z,0.00
2022-08-29T01:10:25.543Z,0.00
2022-08-29T01:11:25.543Z,0.00
2022-08-29T01:12:25.516Z,0.00
2022-08-29T01:13:25.496Z,0.00
2022-08-29T01:14:25.477Z,0.00
2022-08-29T01:15:25.469Z,0.00
2022-08-29T01:16:25.532Z,0.00
2022-08-29T01:17:25.425Z,0.00
2022-08-29T01:18:25.412Z,0.00
2022-08-29T01:19:26.193Z,0.00
2022-08-29T01:20:25.383Z,0.00
2022-08-29T01:21:25.361Z,0.00
2022-08-29T01:22:25.345Z,0.00
2022-08-29T01:23:25.329Z,0.00
2022-08-29T01:24:25.310Z,0.00
2022-08-29T01:25:25.297Z,0.00
2022-08-29T01:26:25.278Z,0.00
2022-08-29T01:27:25.262Z,0.00
2022-08-29T01:28:25.249Z,0.00
2022-08-29T01:29:25.228Z,0.00
2022-08-29T01:30:25.210Z,0.00
2022-08-29T01:31:38.561Z,0.00
2022-08-29T01:32:25.268Z,0.00
2022-08-29T01:33:25.157Z,0.00
2022-08-29T01:34:25.144Z,0.00
2022-08-29T01:35:25.126Z,0.00
2022-08-29T01:36:25.114Z,0.00
2022-08-29T01:37:25.095Z,0.00
2022-08-29T01:38:25.079Z,0.00
2022-08-29T01:39:25.058Z,0.00
2022-08-29T01:40:25.101Z,0.00
2022-08-29T01:41:25.024Z,0.00
2022-08-29T01:42:25.012Z,0.00
2022-08-29T01:43:24.997Z,0.00
2022-08-29T01:44:24.985Z,0.00
2022-08-29T01:45:25.033Z,0.00
2022-08-29T01:46:24.948Z,0.00
2022-08-29T01:47:24.927Z,0.00
2022-08-29T01:48:24.911Z,0.00
2022-08-29T01:49:24.897Z,0.00
2022-08-29T01:50:24.878Z,0.00
2022-08-29T01:51:24.859Z,0.00
2022-08-29T01:52:24.850Z,0.00
2022-08-29T01:53:24.829Z,0.00
2022-08-29T01:54:24.810Z,0.00
2022-08-29T01:55:24.794Z,0.00
2022-08-29T01:56:24.778Z,0.00
2022-08-29T01:57:24.768Z,0.00
2022-08-29T01:58:24.741Z,0.00
2022-08-29T01:59:24.731Z,0.00
2022-08-29T02:00:24.714Z,0.00
2022-08-29T02:01:25.464Z,0.00
2022-08-29T02:02:24.764Z,0.00
2022-08-29T02:03:24.660Z,0.00
2022-08-29T02:04:24.643Z,0.00
2022-08-29T02:05:24.625Z,0.00
2022-08-29T02:06:24.605Z,0.00
2022-08-29T02:07:24.588Z,0.00
2022-08-29T02:08:24.576Z,0.00
2022-08-29T02:09:24.863Z,0.00
2022-08-29T02:10:24.537Z,0.00
2022-08-29T02:11:24.521Z,0.00
2022-08-29T02:12:24.506Z,0.00
2022-08-29T02:13:24.496Z,0.00
2022-08-29T02:14:24.470Z,0.00
2022-08-29T02:15:24.459Z,0.00
2022-08-29T02:16:24.522Z,0.00
2022-08-29T02:17:24.421Z,0.00
2022-08-29T02:18:24.404Z,0.00
2022-08-29T02:19:24.389Z,0.00
2022-08-29T02:20:24.369Z,0.00
2022-08-29T02:21:24.356Z,0.00
2022-08-29T02:22:24.338Z,0.00
2022-08-29T02:23:30.875Z,0.00
2022-08-29T02:24:26.098Z,0.00
2022-08-29T02:25:24.284Z,0.00
2022-08-29T02:26:24.270Z,0.00
2022-08-29T02:27:24.257Z,0.00
2022-08-29T02:28:24.237Z,0.00
2022-08-29T02:29:24.226Z,0.00
2022-08-29T02:30:24.202Z,0.00
2022-08-29T02:31:24.256Z,0.00
2022-08-29T02:32:24.166Z,0.00
2022-08-29T02:33:24.154Z,0.00
2022-08-29T02:34:24.139Z,0.00
2022-08-29T02:35:24.328Z,0.00
2022-08-29T02:36:24.103Z,0.00
2022-08-29T02:37:24.087Z,0.00
2022-08-29T02:38:24.067Z,0.00
2022-08-29T02:39:24.052Z,0.00
2022-08-29T02:40:24.769Z,0.00
2022-08-29T02:41:24.017Z,0.00
2022-08-29T02:42:23.996Z,0.00
2022-08-29T02:43:23.981Z,0.00
2022-08-29T02:44:23.962Z,0.00
2022-08-29T02:45:23.951Z,0.00
2022-08-29T02:46:23.959Z,0.00
2022-08-29T02:47:23.909Z,0.00
2022-08-29T02:48:23.903Z,0.00
2022-08-29T02:49:23.879Z,0.00
2022-08-29T02:50:23.862Z,0.00
2022-08-29T02:51:23.845Z,0.00
2022-08-29T02:52:23.828Z,0.00
2022-08-29T02:53:23.811Z,0.00
2022-08-29T02:54:23.818Z,0.00
2022-08-29T02:55:23.777Z,0.00
2022-08-29T02:56:23.762Z,0.00
2022-08-29T02:57:23.740Z,0.00
2022-08-29T02:58:23.723Z,0.00
2022-08-29T02:59:23.712Z,0.00
2022-08-29T03:00:23.688Z,0.00
2022-08-29T03:01:23.748Z,0.00
2022-08-29T03:02:23.683Z,0.00
2022-08-29T03:03:23.639Z,0.00
2022-08-29T03:04:23.626Z,0.00
2022-08-29T03:05:23.606Z,0.00
2022-08-29T03:06:23.588Z,0.00
2022-08-29T03:07:23.572Z,0.00
2022-08-29T03:08:23.553Z,0.00
2022-08-29T03:09:23.540Z,0.00
2022-08-29T03:10:23.522Z,0.00
2022-08-29T03:11:23.508Z,0.00
2022-08-29T03:12:23.482Z,0.00
2022-08-29T03:13:23.472Z,0.00
2022-08-29T03:14:23.446Z,0.00
2022-08-29T03:15:23.436Z,0.00
2022-08-29T03:16:23.455Z,0.00
2022-08-29T03:17:23.401Z,0.00
2022-08-29T03:18:23.385Z,0.00
2022-08-29T03:19:23.370Z,0.00
2022-08-29T03:20:23.351Z,0.00
2022-08-29T03:21:23.336Z,0.00
2022-08-29T03:22:23.319Z,0.00
2022-08-29T03:23:23.300Z,0.00
2022-08-29T03:24:26.909Z,0.00
2022-08-29T03:25:23.271Z,0.00
2022-08-29T03:26:23.245Z,0.00
2022-08-29T03:27:23.229Z,0.00
2022-08-29T03:28:23.226Z,0.00
2022-08-29T03:29:23.197Z,0.00
2022-08-29T03:30:24.059Z,0.00
2022-08-29T03:31:23.239Z,0.00
2022-08-29T03:32:23.148Z,0.00
2022-08-29T03:33:23.127Z,0.00
2022-08-29T03:34:23.110Z,0.00
2022-08-29T03:35:23.096Z,0.00
2022-08-29T03:36:23.073Z,0.00
2022-08-29T03:37:23.060Z,0.00
2022-08-29T03:38:23.052Z,0.00
2022-08-29T03:39:23.024Z,0.00
2022-08-29T03:40:23.100Z,0.00
2022-08-29T03:41:22.990Z,0.00
2022-08-29T03:42:22.965Z,0.00
2022-08-29T03:43:22.956Z,0.00
2022-08-29T03:44:22.935Z,0.00
2022-08-29T03:45:22.922Z,0.00
2022-08-29T03:46:22.976Z,0.00
2022-08-29T03:47:22.888Z,0.00
2022-08-29T03:48:22.868Z,0.00
2022-08-29T03:49:22.852Z,0.00
2022-08-29T03:50:22.832Z,0.00
2022-08-29T03:51:22.813Z,0.00
2022-08-29T03:52:22.803Z,0.00
2022-08-29T03:53:22.782Z,0.00
2022-08-29T03:54:22.762Z,0.00
2022-08-29T03:55:22.751Z,0.00
2022-08-29T03:56:22.727Z,0.00
2022-08-29T03:57:22.717Z,0.00
2022-08-29T03:58:22.695Z,0.00
2022-08-29T03:59:22.680Z,0.00
2022-08-29T04:00:22.665Z,0.00
2022-08-29T04:01:22.962Z,0.00
2022-08-29T04:02:22.704Z,0.00
2022-08-29T04:03:26.568Z,4.00
2022-08-29T04:04:22.592Z,0.00
2022-08-29T04:05:22.578Z,0.00
2022-08-29T04:06:22.558Z,4.00
2022-08-29T04:07:22.537Z,0.00
2022-08-29T04:08:22.518Z,4.00
2022-08-29T04:09:22.507Z,8.00
2022-08-29T04:10:22.486Z,4.00
2022-08-29T04:11:22.471Z,4.00
2022-08-29T04:12:22.452Z,8.00
2022-08-29T04:13:22.440Z,12.00
2022-08-29T04:14:22.419Z,12.00
2022-08-29T04:15:22.405Z,12.00
2022-08-29T04:16:22.488Z,16.00
2022-08-29T04:17:22.367Z,16.00
2022-08-29T04:18:22.558Z,20.00
2022-08-29T04:19:22.335Z,20.00
2022-08-29T04:20:25.052Z,24.00
2022-08-29T04:21:22.304Z,24.00
2022-08-29T04:22:22.277Z,32.00
2022-08-29T04:23:22.260Z,36.00
2022-08-29T04:24:22.246Z,40.00
2022-08-29T04:25:22.241Z,44.00
2022-08-29T04:26:37.889Z,52.00
2022-08-29T04:27:22.189Z,60.00
2022-08-29T04:28:22.172Z,68.00
2022-08-29T04:29:22.159Z,76.00
2022-08-29T04:30:22.137Z,84.00
2022-08-29T04:31:22.209Z,92.00
2022-08-29T04:32:22.109Z,96.00
2022-08-29T04:33:22.763Z,100.00
2022-08-29T04:34:22.068Z,104.00
2022-08-29T04:35:22.054Z,112.00
2022-08-29T04:36:22.041Z,120.00
2022-08-29T04:37:22.021Z,128.00
2022-08-29T04:38:21.999Z,136.00
2022-08-29T04:39:21.984Z,152.00
2022-08-29T04:40:22.103Z,160.00
2022-08-29T04:41:21.949Z,176.00
2022-08-29T04:42:21.936Z,188.00
2022-08-29T04:43:21.913Z,204.00
2022-08-29T04:44:21.897Z,216.00
2022-08-29T04:45:21.874Z,232.00
2022-08-29T04:46:23.970Z,252.00
2022-08-29T04:47:21.844Z,264.00
2022-08-29T04:48:21.830Z,284.00
2022-08-29T04:49:21.812Z,296.00
2022-08-29T04:50:21.792Z,316.00
2022-08-29T04:51:21.784Z,324.00
2022-08-29T04:52:21.756Z,332.00
2022-08-29T04:53:21.737Z,336.00
2022-08-29T04:54:21.719Z,348.00
2022-08-29T04:55:25.467Z,360.00
2022-08-29T04:56:21.686Z,380.00
2022-08-29T04:57:21.673Z,396.00
2022-08-29T04:58:21.646Z,416.00
2022-08-29T04:59:21.633Z,440.00
2022-08-29T05:00:21.624Z,464.00
2022-08-29T05:01:21.696Z,492.00
2022-08-29T05:02:21.617Z,528.00
2022-08-29T05:03:21.562Z,560.00
2022-08-29T05:04:21.549Z,600.00
2022-08-29T05:05:21.529Z,648.00
2022-08-29T05:06:22.712Z,696.00
2022-08-29T05:07:21.494Z,744.00
2022-08-29T05:08:21.478Z,796.00
2022-08-29T05:09:21.465Z,844.00
2022-08-29T05:10:21.438Z,892.00
2022-08-29T05:11:22.782Z,936.00
2022-08-29T05:12:21.410Z,988.00
2022-08-29T05:13:21.390Z,1048.00
2022-08-29T05:14:21.372Z,1112.00
2022-08-29T05:15:21.356Z,1176.00
2022-08-29T05:16:21.406Z,1240.00
2022-08-29T05:17:21.318Z,1304.00
2022-08-29T05:18:21.299Z,1364.00
2022-08-29T05:19:21.284Z,1420.00
2022-08-29T05:20:21.266Z,1472.00
2022-08-29T05:21:21.250Z,1532.00
2022-08-29T05:22:21.230Z,1592.00
2022-08-29T05:23:21.219Z,1652.00
2022-08-29T05:24:21.198Z,1664.00
2022-08-29T05:25:21.181Z,1652.00
2022-08-29T05:26:21.164Z,1628.00
2022-08-29T05:27:21.152Z,1644.00
2022-08-29T05:28:21.133Z,1720.00
2022-08-29T05:29:21.117Z,1816.00
2022-08-29T05:30:35.066Z,1908.00
2022-08-29T05:31:21.181Z,2004.00
2022-08-29T05:32:21.062Z,2100.00
2022-08-29T05:33:21.047Z,2200.00
2022-08-29T05:34:34.902Z,2264.00
2022-08-29T05:35:21.004Z,2316.00
2022-08-29T05:36:20.988Z,2360.00
2022-08-29T05:37:20.978Z,2388.00
2022-08-29T05:38:20.953Z,2412.00
2022-08-29T05:39:20.940Z,2440.00
2022-08-29T05:40:21.001Z,2460.00
2022-08-29T05:41:20.904Z,2480.00
2022-08-29T05:42:20.892Z,2492.00
2022-08-29T05:43:20.883Z,2524.00
2022-08-29T05:44:20.857Z,2600.00
2022-08-29T05:45:20.829Z,2684.00
2022-08-29T05:46:20.841Z,2732.00
2022-08-29T05:47:20.802Z,2760.00
2022-08-29T05:48:20.787Z,2784.00
2022-08-29T05:49:20.767Z,2812.00
2022-08-29T05:50:20.748Z,2856.00
2022-08-29T05:51:20.738Z,2884.00
2022-08-29T05:52:20.714Z,2892.00
2022-08-29T05:53:20.706Z,2904.00
2022-08-29T05:54:20.682Z,2908.00
2022-08-29T05:55:20.661Z,2900.00
2022-08-29T05:56:20.646Z,2872.00
2022-08-29T05:57:20.630Z,2872.00
2022-08-29T05:58:20.616Z,2900.00
2022-08-29T05:59:20.595Z,2924.00
2022-08-29T06:00:20.579Z,2924.00
2022-08-29T06:01:20.567Z,2948.00
2022-08-29T06:02:20.748Z,2964.00
2022-08-29T06:03:20.668Z,3020.00
2022-08-29T06:04:20.511Z,3096.00
2022-08-29T06:05:20.499Z,3188.00
2022-08-29T06:06:20.476Z,3300.00
2022-08-29T06:07:20.466Z,3392.00
2022-08-29T06:08:20.445Z,3428.00
2022-08-29T06:09:20.431Z,3452.00
2022-08-29T06:10:20.411Z,3484.00
2022-08-29T06:11:20.395Z,3552.00
2022-08-29T06:12:20.377Z,3692.00
2022-08-29T06:13:20.360Z,3768.00
2022-08-29T06:14:20.343Z,3764.00
2022-08-29T06:15:20.327Z,3780.00
2022-08-29T06:16:20.355Z,3876.00
2022-08-29T06:17:20.295Z,3988.00
2022-08-29T06:18:22.947Z,4080.00
2022-08-29T06:19:20.262Z,4156.00
2022-08-29T06:20:20.250Z,4168.00
2022-08-29T06:21:20.231Z,4116.00
2022-08-29T06:22:20.216Z,4024.00
2022-08-29T06:23:20.194Z,4004.00
2022-08-29T06:24:20.183Z,4032.00
2022-08-29T06:26:20.151Z,4160.00
2022-08-29T06:27:20.130Z,4280.00
2022-08-29T06:28:24.071Z,4280.00
2022-08-29T06:29:20.098Z,4272.00
2022-08-29T06:30:20.082Z,4360.00
2022-08-29T06:31:20.168Z,4412.00
2022-08-29T06:32:20.051Z,4560.00
2022-08-29T06:33:20.031Z,4600.00
2022-08-29T06:34:20.020Z,4708.00
2022-08-29T06:35:20.003Z,4920.00
2022-08-29T06:36:19.989Z,5020.00
2022-08-29T06:37:19.982Z,5116.00
2022-08-29T06:38:20.507Z,5552.00
2022-08-29T06:39:19.940Z,6264.00
2022-08-29T06:40:20.012Z,7728.00
2022-08-29T06:41:19.906Z,21664.00
2022-08-29T06:42:19.890Z,36160.00
2022-08-29T06:43:19.877Z,38784.00
2022-08-29T06:44:19.858Z,39968.00
2022-08-29T06:45:19.847Z,32256.00
2022-08-29T06:46:19.965Z,33152.00
2022-08-29T06:47:19.813Z,36256.00
2022-08-29T06:48:19.806Z,31808.00
2022-08-29T06:49:19.783Z,23584.00
2022-08-29T06:50:19.771Z,16192.00
2022-08-29T06:51:19.761Z,27136.00
2022-08-29T06:52:19.745Z,30336.00
2022-08-29T06:53:31.571Z,17856.00
2022-08-29T06:54:19.719Z,12280.00
2022-08-29T06:55:23.909Z,10660.00
2022-08-29T06:56:19.693Z,8616.00
2022-08-29T06:57:19.677Z,11304.00
2022-08-29T06:58:19.663Z,11316.00
2022-08-29T06:59:19.647Z,11672.00
2022-08-29T07:00:22.541Z,10564.00
2022-08-29T07:01:19.668Z,11312.00
2022-08-29T07:02:19.675Z,11412.00
2022-08-29T07:03:19.608Z,11060.00
2022-08-29T07:04:20.855Z,9684.00
2022-08-29T07:05:19.581Z,10720.00
2022-08-29T07:06:19.573Z,10480.00
2022-08-29T07:07:19.557Z,10436.00
2022-08-29T07:08:19.544Z,10864.00
2022-08-29T07:09:19.533Z,10856.00
2022-08-29T07:10:22.538Z,14836.00
2022-08-29T07:11:19.515Z,13232.00
2022-08-29T07:12:19.502Z,18208.00
2022-08-29T07:13:19.490Z,17792.00
2022-08-29T07:14:19.480Z,12060.00
2022-08-29T07:15:19.464Z,14452.00
2022-08-29T07:16:19.531Z,14592.00
2022-08-29T07:17:25.858Z,22208.00
2022-08-29T07:18:19.432Z,25216.00
2022-08-29T07:19:19.426Z,20064.00
2022-08-29T07:20:19.413Z,24256.00
2022-08-29T07:21:20.932Z,20416.00
2022-08-29T07:22:19.387Z,28096.00
2022-08-29T07:23:19.373Z,29440.00
2022-08-29T07:24:24.245Z,28128.00
2022-08-29T07:25:19.350Z,34176.00
2022-08-29T07:26:19.340Z,33696.00
2022-08-29T07:27:19.328Z,40672.00
2022-08-29T07:28:19.317Z,29248.00
2022-08-29T07:29:19.303Z,25280.00
2022-08-29T07:30:19.295Z,12428.00
2022-08-29T07:31:19.361Z,22144.00
2022-08-29T07:32:21.717Z,20640.00
2022-08-29T07:33:19.260Z,26720.00
2022-08-29T07:34:20.719Z,24000.00
2022-08-29T07:35:29.586Z,23904.00
2022-08-29T07:36:19.238Z,23040.00
2022-08-29T07:37:19.215Z,24672.00
2022-08-29T07:38:19.208Z,48448.00
2022-08-29T07:39:19.196Z,48032.00
2022-08-29T07:40:19.286Z,35456.00
2022-08-29T07:41:19.181Z,38464.00
2022-08-29T07:42:19.164Z,36768.00
2022-08-29T07:43:20.458Z,46272.00
2022-08-29T07:44:19.148Z,54272.00
2022-08-29T07:45:19.135Z,48288.00
2022-08-29T07:46:19.200Z,50784.00
2022-08-29T07:47:19.115Z,60832.00
2022-08-29T07:48:22.952Z,53632.00
2022-08-29T07:49:19.097Z,43808.00
2022-08-29T07:50:19.093Z,58688.00
2022-08-29T07:51:19.084Z,59072.00
2022-08-29T07:52:19.070Z,60544.00
2022-08-29T07:53:19.065Z,56256.00
2022-08-29T07:54:19.063Z,60896.00
2022-08-29T07:55:19.050Z,63808.00
2022-08-29T07:56:19.060Z,67104.00
2022-08-29T07:57:19.044Z,64096.00
2022-08-29T07:58:19.031Z,55360.00
2022-08-29T07:59:19.026Z,44384.00
2022-08-29T08:00:19.022Z,41056.00
2022-08-29T08:01:21.187Z,42784.00
2022-08-29T08:02:19.062Z,47744.00
2022-08-29T08:03:19.000Z,37120.00
2022-08-29T08:04:19.175Z,38208.00
2022-08-29T08:05:18.989Z,36640.00
2022-08-29T08:06:18.984Z,36576.00
2022-08-29T08:07:18.977Z,33504.00
2022-08-29T08:08:19.313Z,35872.00
2022-08-29T08:09:18.970Z,37856.00
2022-08-29T08:10:18.961Z,40800.00
2022-08-29T08:11:18.955Z,38848.00
2022-08-29T08:12:18.943Z,43488.00
2022-08-29T08:13:18.937Z,53632.00
2022-08-29T08:14:18.933Z,61344.00
2022-08-29T08:15:18.928Z,59136.00
2022-08-29T08:16:19.052Z,67232.00
2022-08-29T08:17:18.917Z,64704.00
2022-08-29T08:18:18.914Z,43904.00
2022-08-29T08:19:18.906Z,43200.00
2022-08-29T08:20:18.901Z,28192.00
2022-08-29T08:21:18.895Z,45088.00
2022-08-29T08:22:18.889Z,53440.00
2022-08-29T08:23:19.231Z,46752.00
2022-08-29T08:24:20.025Z,46112.00
2022-08-29T08:25:18.879Z,37312.00
2022-08-29T08:26:18.872Z,33024.00
2022-08-29T08:27:18.866Z,33312.00
2022-08-29T08:28:18.862Z,34336.00
2022-08-29T08:29:18.857Z,37376.00
2022-08-29T08:30:18.853Z,53984.00
2022-08-29T08:31:18.943Z,67584.00
2022-08-29T08:32:18.850Z,64256.00
2022-08-29T08:33:18.835Z,62272.00
2022-08-29T08:34:18.839Z,62144.00
2022-08-29T08:35:19.897Z,56352.00
2022-08-29T08:36:18.824Z,57184.00
2022-08-29T08:37:24.186Z,44128.00
2022-08-29T08:38:18.821Z,39936.00
2022-08-29T08:39:18.815Z,34592.00
2022-08-29T08:40:18.882Z,29984.00
2022-08-29T08:41:18.804Z,28320.00
2022-08-29T08:42:22.958Z,25184.00
2022-08-29T08:43:26.790Z,23936.00
2022-08-29T08:44:18.794Z,23968.00
2022-08-29T08:45:18.798Z,15300.00
2022-08-29T08:46:18.879Z,12704.00
2022-08-29T08:47:18.776Z,12120.00
2022-08-29T08:48:18.771Z,9604.00
2022-08-29T08:49:18.764Z,8492.00
2022-08-29T08:50:18.756Z,7872.00
2022-08-29T08:51:18.754Z,7552.00
2022-08-29T08:52:18.747Z,6908.00
2022-08-29T08:53:18.739Z,7196.00
2022-08-29T08:54:18.735Z,8672.00
2022-08-29T08:55:18.722Z,13068.00
2022-08-29T08:56:18.717Z,16864.00
2022-08-29T08:57:18.708Z,15968.00
2022-08-29T08:58:18.699Z,17376.00
2022-08-29T08:59:18.692Z,13832.00
2022-08-29T09:00:18.686Z,11400.00
2022-08-29T09:01:18.773Z,13140.00
2022-08-29T09:02:18.737Z,12596.00
2022-08-29T09:03:18.656Z,8556.00
2022-08-29T09:04:18.668Z,7204.00
2022-08-29T09:05:18.640Z,6952.00
2022-08-29T09:06:18.629Z,6652.00
2022-08-29T09:07:18.620Z,5780.00
2022-08-29T09:08:18.618Z,5504.00
2022-08-29T09:09:18.597Z,5548.00
2022-08-29T09:10:18.595Z,5752.00
2022-08-29T09:11:18.580Z,10084.00
2022-08-29T09:12:18.565Z,6272.00
2022-08-29T09:13:18.563Z,5596.00
2022-08-29T09:14:18.552Z,6756.00
2022-08-29T09:15:18.542Z,8240.00
2022-08-29T09:16:18.585Z,6800.00
2022-08-29T09:17:18.513Z,10644.00
2022-08-29T09:18:23.794Z,8900.00
2022-08-29T09:19:18.493Z,9876.00
2022-08-29T09:20:18.541Z,9360.00
2022-08-29T09:21:40.094Z,10552.00
2022-08-29T09:22:18.467Z,17408.00
2022-08-29T09:23:18.450Z,16384.00
2022-08-29T09:24:18.444Z,10868.00
2022-08-29T09:25:18.427Z,7936.00
2022-08-29T09:26:18.421Z,6904.00
2022-08-29T09:27:18.412Z,6828.00
2022-08-29T09:28:18.398Z,7228.00
2022-08-29T09:29:18.397Z,6688.00
2022-08-29T09:30:18.379Z,6800.00
2022-08-29T09:31:18.464Z,7996.00
2022-08-29T09:32:22.346Z,12316.00
2022-08-29T09:33:19.094Z,13908.00
2022-08-29T09:34:18.331Z,14220.00
2022-08-29T09:35:18.318Z,15872.00
2022-08-29T09:36:18.309Z,12704.00
2022-08-29T09:37:18.304Z,13140.00
2022-08-29T09:38:18.292Z,11584.00
2022-08-29T09:39:18.281Z,12036.00
2022-08-29T09:40:19.049Z,12448.00
2022-08-29T09:41:18.258Z,10948.00
2022-08-29T09:42:18.244Z,10720.00
2022-08-29T09:43:18.231Z,12828.00
2022-08-29T09:44:18.228Z,12232.00
2022-08-29T09:45:18.221Z,12880.00
2022-08-29T09:46:18.315Z,14272.00
2022-08-29T09:47:18.200Z,14208.00
2022-08-29T09:48:18.188Z,11492.00
2022-08-29T09:49:18.178Z,11440.00
2022-08-29T09:50:18.188Z,12800.00
2022-08-29T09:51:18.162Z,11956.00
2022-08-29T09:52:18.152Z,11256.00
2022-08-29T09:53:25.015Z,12064.00
2022-08-29T09:54:18.137Z,12456.00
2022-08-29T09:55:18.124Z,11812.00
2022-08-29T09:56:18.136Z,12588.00
2022-08-29T09:57:18.127Z,12668.00
2022-08-29T09:58:18.104Z,12412.00
2022-08-29T09:59:18.110Z,10700.00
2022-08-29T10:00:18.146Z,8708.00
2022-08-29T10:01:18.303Z,9312.00
2022-08-29T10:02:18.088Z,8592.00
2022-08-29T10:03:18.059Z,7308.00
2022-08-29T10:04:18.054Z,7692.00
2022-08-29T10:05:18.040Z,7868.00
2022-08-29T10:06:18.033Z,8324.00
2022-08-29T10:07:18.033Z,9228.00
2022-08-29T10:08:18.018Z,10588.00
2022-08-29T10:09:18.011Z,10404.00
2022-08-29T10:10:18.010Z,9444.00
2022-08-29T10:11:17.994Z,9248.00
2022-08-29T10:12:17.998Z,9780.00
2022-08-29T10:13:17.979Z,11172.00
2022-08-29T10:14:17.987Z,10524.00
2022-08-29T10:15:33.613Z,8896.00
2022-08-29T10:16:18.019Z,9620.00
2022-08-29T10:17:17.939Z,9732.00
2022-08-29T10:18:17.938Z,10092.00
2022-08-29T10:19:17.919Z,9596.00
2022-08-29T10:20:17.915Z,9684.00
2022-08-29T10:21:17.914Z,8524.00
2022-08-29T10:22:17.965Z,8148.00
2022-08-29T10:23:17.886Z,8444.00
2022-08-29T10:24:19.500Z,9544.00
2022-08-29T10:25:17.867Z,10148.00
2022-08-29T10:26:17.866Z,9748.00
2022-08-29T10:27:17.861Z,9440.00
2022-08-29T10:28:17.843Z,9456.00
2022-08-29T10:29:17.845Z,8544.00
2022-08-29T10:30:17.833Z,8804.00
2022-08-29T10:31:17.872Z,8996.00
2022-08-29T10:32:17.806Z,7756.00
2022-08-29T10:33:17.801Z,9048.00
2022-08-29T10:34:17.789Z,8620.00
2022-08-29T10:35:17.778Z,8292.00
2022-08-29T10:36:17.773Z,8812.00
2022-08-29T10:37:17.764Z,8500.00
2022-08-29T10:38:17.754Z,8264.00
2022-08-29T10:39:17.743Z,8792.00
2022-08-29T10:40:17.953Z,8552.00
2022-08-29T10:41:17.723Z,7888.00
2022-08-29T10:42:17.712Z,7676.00
2022-08-29T10:43:17.701Z,6348.00
2022-08-29T10:45:17.686Z,9444.00
2022-08-29T10:46:17.875Z,9600.00
2022-08-29T10:47:17.664Z,9356.00
2022-08-29T10:48:17.674Z,8748.00
2022-08-29T10:49:17.650Z,8892.00
2022-08-29T10:50:42.540Z,9728.00
2022-08-29T10:51:17.634Z,9708.00
2022-08-29T10:52:17.614Z,9260.00
2022-08-29T10:53:17.613Z,10000.00
2022-08-29T10:54:17.596Z,10388.00
2022-08-29T10:55:17.590Z,9800.00
2022-08-29T10:56:17.596Z,9460.00
2022-08-29T10:57:17.576Z,8896.00
2022-08-29T10:58:17.558Z,7620.00
2022-08-29T10:59:17.562Z,8028.00
2022-08-29T11:00:17.543Z,9776.00
2022-08-29T11:01:17.623Z,9688.00
2022-08-29T11:02:17.524Z,8300.00
2022-08-29T11:03:17.515Z,7428.00
2022-08-29T11:04:17.885Z,6648.00
2022-08-29T11:05:17.496Z,5440.00
2022-08-29T11:06:17.486Z,5356.00
2022-08-29T11:07:17.477Z,5336.00
2022-08-29T11:08:17.850Z,5328.00
2022-08-29T11:09:17.460Z,5740.00
2022-08-29T11:10:17.448Z,6420.00
2022-08-29T11:11:17.442Z,7012.00
2022-08-29T11:12:17.897Z,6912.00
2022-08-29T11:13:17.423Z,7376.00
2022-08-29T11:14:17.410Z,6940.00
2022-08-29T11:15:17.403Z,7168.00
2022-08-29T11:16:17.464Z,7268.00
2022-08-29T11:17:17.382Z,7380.00
2022-08-29T11:18:22.357Z,7676.00
2022-08-29T11:19:22.097Z,8176.00
2022-08-29T11:20:17.353Z,7276.00
2022-08-29T11:21:17.345Z,7868.00
2022-08-29T11:22:17.340Z,7744.00
2022-08-29T11:23:17.326Z,7824.00
2022-08-29T11:24:17.314Z,8336.00
2022-08-29T11:25:17.302Z,8724.00
2022-08-29T11:26:17.292Z,9392.00
2022-08-29T11:27:17.286Z,9420.00
2022-08-29T11:28:17.324Z,9568.00
2022-08-29T11:29:17.268Z,9348.00
2022-08-29T11:30:17.254Z,8660.00
2022-08-29T11:31:17.282Z,8544.00
2022-08-29T11:32:17.241Z,7868.00
2022-08-29T11:33:17.315Z,6596.00
2022-08-29T11:34:17.221Z,5692.00
2022-08-29T11:35:17.206Z,5496.00
2022-08-29T11:36:17.198Z,5560.00
2022-08-29T11:37:17.191Z,5800.00
2022-08-29T11:38:17.179Z,6188.00
2022-08-29T11:39:17.171Z,6920.00
2022-08-29T11:40:17.175Z,6672.00
2022-08-29T11:41:32.583Z,6356.00
2022-08-29T11:42:49.835Z,5772.00
2022-08-29T11:43:17.405Z,5712.00
2022-08-29T11:44:17.128Z,5920.00
2022-08-29T11:45:17.115Z,6248.00
2022-08-29T11:46:17.115Z,7316.00
2022-08-29T11:47:17.159Z,6612.00
2022-08-29T11:48:17.085Z,7404.00
2022-08-29T11:49:17.069Z,7324.00
2022-08-29T11:50:17.100Z,7384.00
2022-08-29T11:51:17.048Z,6680.00
2022-08-29T11:52:18.956Z,5808.00
2022-08-29T11:53:17.149Z,5556.00
2022-08-29T11:54:17.018Z,5340.00
2022-08-29T11:55:17.013Z,5080.00
2022-08-29T11:56:17.000Z,4952.00
2022-08-29T11:57:16.994Z,4908.00
2022-08-29T11:58:16.984Z,4908.00
2022-08-29T11:59:16.968Z,4916.00
2022-08-29T12:00:16.989Z,4924.00
2022-08-29T12:01:18.918Z,4800.00
2022-08-29T12:02:16.987Z,4972.00
2022-08-29T12:03:28.008Z,5868.00
2022-08-29T12:04:16.991Z,7572.00
2022-08-29T12:05:16.909Z,8164.00
2022-08-29T12:06:16.894Z,7936.00
2022-08-29T12:07:16.889Z,8116.00
2022-08-29T12:08:35.953Z,8672.00
2022-08-29T12:09:16.863Z,8696.00
2022-08-29T12:10:16.856Z,8244.00
2022-08-29T12:11:16.842Z,7940.00
2022-08-29T12:12:16.833Z,7244.00
2022-08-29T12:13:16.839Z,7560.00
2022-08-29T12:14:16.813Z,7840.00
2022-08-29T12:15:16.798Z,7800.00
2022-08-29T12:16:16.885Z,7504.00
2022-08-29T12:17:16.781Z,7108.00
2022-08-29T12:18:16.933Z,7024.00
2022-08-29T12:19:16.753Z,7328.00
2022-08-29T12:20:16.746Z,7028.00
2022-08-29T12:21:16.735Z,6784.00
2022-08-29T12:22:22.606Z,6616.00
2022-08-29T12:23:16.918Z,6472.00
2022-08-29T12:24:16.706Z,6080.00
2022-08-29T12:25:16.692Z,5988.00
2022-08-29T12:26:22.597Z,6596.00
2022-08-29T12:27:20.422Z,6576.00